createdAt,value
2022-12-09T00:01:44.413Z,101057.31
2022-12-09T00:04:15.912Z,101053.03
2022-12-09T00:06:47.206Z,101064.28
2022-12-09T00:09:18.784Z,101056.13
2022-12-09T00:11:50.212Z,101052.75
2022-12-09T00:14:21.208Z,101054.41
2022-12-09T00:16:52.280Z,101062.19
2022-12-09T00:19:23.256Z,101063.44
2022-12-09T00:21:54.119Z,101059.28
2022-12-09T00:24:24.837Z,101067.22
2022-12-09T00:26:56.547Z,101078.28
2022-12-09T00:29:27.445Z,101069.41
2022-12-09T00:31:58.466Z,101079.31
2022-12-09T00:34:29.464Z,101082.25
2022-12-09T00:37:00.570Z,101073.16
2022-12-09T00:39:31.523Z,101077.31
2022-12-09T00:42:02.613Z,101072.03
2022-12-09T00:44:33.368Z,101079.09
2022-12-09T00:47:04.942Z,101077.47
2022-12-09T00:49:35.834Z,101085.78
2022-12-09T00:52:06.885Z,101073.25
2022-12-09T00:54:37.988Z,101078.38
2022-12-09T00:57:09.286Z,101076.53
2022-12-09T00:59:40.041Z,101078.06
2022-12-09T01:02:11.553Z,101071.59
2022-12-09T01:04:44.093Z,101072.63
2022-12-09T01:07:15.011Z,101058.94
2022-12-09T01:09:46.081Z,101055.38
2022-12-09T01:12:17.178Z,101041.56
2022-12-09T01:14:48.104Z,101034.22
2022-12-09T01:17:18.924Z,101023.03
2022-12-09T01:19:50.418Z,101013.13
2022-12-09T01:22:21.402Z,101000.03
2022-12-09T01:24:52.469Z,100996.97
2022-12-09T01:27:24.323Z,101004.56
2022-12-09T01:29:55.269Z,100988.88
2022-12-09T01:32:26.161Z,100989.75
2022-12-09T01:34:57.016Z,100979.63
2022-12-09T01:37:28.229Z,100969.91
2022-12-09T01:39:59.335Z,100972.53
2022-12-09T01:42:30.436Z,100958.59
2022-12-09T01:45:31.855Z,100949.00
2022-12-09T01:48:09.982Z,100946.06
2022-12-09T01:51:16.893Z,100942.44
2022-12-09T01:53:52.314Z,100948.00
2022-12-09T01:56:33.350Z,100936.63
2022-12-09T01:59:09.726Z,100938.47
2022-12-09T02:01:41.671Z,100943.53
2022-12-09T02:04:12.893Z,100944.38
2022-12-09T02:06:44.012Z,100935.63
2022-12-09T02:09:17.388Z,100922.72
2022-12-09T02:12:06.647Z,100928.53
2022-12-09T02:15:00.153Z,100937.78
2022-12-09T02:17:43.303Z,100937.59
2022-12-09T02:20:30.551Z,100937.66
2022-12-09T02:23:27.486Z,100934.91
2022-12-09T02:28:46.691Z,100932.78
2022-12-09T02:31:22.338Z,100941.03
2022-12-09T02:34:05.520Z,100940.03
2022-12-09T02:36:58.467Z,100942.31
2022-12-09T02:39:47.836Z,100939.78
2022-12-09T02:42:21.079Z,100931.78
2022-12-09T02:44:53.976Z,100938.25
2022-12-09T02:47:27.676Z,100928.09
2022-12-09T02:50:07.402Z,100929.75
2022-12-09T02:52:40.534Z,100952.50
2022-12-09T02:55:12.927Z,100959.19
2022-12-09T02:57:44.240Z,100961.72
2022-12-09T03:00:17.868Z,100967.94
2022-12-09T03:02:52.335Z,100968.94
2022-12-09T03:05:38.822Z,100973.31
2022-12-09T03:08:34.076Z,100980.00
2022-12-09T03:11:18.080Z,100986.53
2022-12-09T03:14:06.868Z,100992.69
2022-12-09T03:16:41.710Z,100993.88
2022-12-09T03:19:38.579Z,100988.56
2022-12-09T03:22:13.812Z,100979.25
2022-12-09T03:24:47.974Z,100986.41
2022-12-09T03:27:21.925Z,100990.81
2022-12-09T03:29:54.764Z,100989.63
2022-12-09T03:32:28.286Z,100991.16
2022-12-09T03:35:05.935Z,100987.84
2022-12-09T03:37:38.737Z,100984.06
2022-12-09T03:40:14.377Z,100985.59
2022-12-09T03:42:55.615Z,100983.44
2022-12-09T03:45:26.934Z,100984.16
2022-12-09T03:47:58.019Z,100992.63
2022-12-09T03:50:33.326Z,100984.47
2022-12-09T03:53:13.591Z,100974.13
2022-12-09T03:55:50.476Z,100982.16
2022-12-09T03:58:21.483Z,100980.63
2022-12-09T04:00:53.454Z,100970.75
2022-12-09T04:03:25.552Z,100970.81
2022-12-09T04:05:56.464Z,100974.19
2022-12-09T04:08:27.729Z,100967.00
2022-12-09T04:10:58.709Z,100969.22
2022-12-09T04:13:29.998Z,100948.69
2022-12-09T04:16:00.744Z,100958.75
2022-12-09T04:18:32.123Z,100949.06
2022-12-09T04:21:06.909Z,100944.09
2022-12-09T04:23:42.466Z,100948.69
2022-12-09T04:26:21.206Z,100933.25
2022-12-09T04:28:52.673Z,100932.44
2022-12-09T04:31:23.208Z,100936.75
2022-12-09T04:33:54.997Z,100935.75
2022-12-09T04:36:25.928Z,100946.69
2022-12-09T04:38:57.127Z,100942.31
2022-12-09T04:41:27.909Z,100935.41
2022-12-09T04:43:58.806Z,100940.38
2022-12-09T04:46:29.563Z,100938.63
2022-12-09T04:49:00.627Z,100945.50
2022-12-09T04:51:38.835Z,100943.88
2022-12-09T04:54:16.702Z,100954.34
2022-12-09T04:56:47.942Z,100940.94
2022-12-09T04:59:18.924Z,100946.84
2022-12-09T05:01:50.317Z,100953.59
2022-12-09T05:04:21.509Z,100956.22
2022-12-09T05:06:52.736Z,100967.00
2022-12-09T05:09:24.428Z,100969.53
2022-12-09T05:11:55.848Z,100966.47
2022-12-09T05:14:26.917Z,100962.38
2022-12-09T05:16:58.152Z,100976.03
2022-12-09T05:19:29.418Z,100979.00
2022-12-09T05:22:00.648Z,100980.00
2022-12-09T05:24:31.829Z,100996.41
2022-12-09T05:27:02.691Z,100993.84
2022-12-09T05:29:33.599Z,100991.72
2022-12-09T05:32:04.454Z,100999.16
2022-12-09T05:34:36.797Z,100991.34
2022-12-09T05:37:08.314Z,101000.53
2022-12-09T05:39:39.289Z,100999.25
2022-12-09T05:42:10.083Z,101001.69
2022-12-09T05:44:41.682Z,100998.69
2022-12-09T05:47:12.856Z,101007.97
2022-12-09T05:49:43.957Z,101006.31
2022-12-09T05:52:15.753Z,101008.44
2022-12-09T05:54:46.240Z,101018.38
2022-12-09T05:57:17.904Z,101017.25
2022-12-09T05:59:48.774Z,101020.63
2022-12-09T06:02:19.717Z,101026.75
2022-12-09T06:04:51.182Z,101034.56
2022-12-09T06:07:22.429Z,101032.94
2022-12-09T06:09:53.977Z,101043.31
2022-12-09T06:12:25.107Z,101042.72
2022-12-09T06:14:56.103Z,101046.78
2022-12-09T06:17:27.801Z,101033.63
2022-12-09T06:19:58.661Z,101038.53
2022-12-09T06:22:30.056Z,101053.25
2022-12-09T06:25:00.987Z,101059.69
2022-12-09T06:27:33.198Z,101058.72
2022-12-09T06:30:04.633Z,101063.53
2022-12-09T06:32:35.382Z,101061.97
2022-12-09T06:35:08.810Z,101061.69
2022-12-09T06:37:40.469Z,101068.91
2022-12-09T06:40:12.476Z,101075.16
2022-12-09T06:42:43.458Z,101073.41
2022-12-09T06:45:14.920Z,101075.63
2022-12-09T06:47:46.824Z,101071.03
2022-12-09T06:50:17.646Z,101075.63
2022-12-09T06:52:49.063Z,101072.66
2022-12-09T06:55:19.856Z,101070.81
2022-12-09T06:57:51.027Z,101071.81
2022-12-09T07:00:22.677Z,101063.63
2022-12-09T07:02:55.521Z,101063.91
2022-12-09T07:05:27.765Z,101060.16
2022-12-09T07:07:59.096Z,101073.25
2022-12-09T07:10:31.611Z,101071.88
2022-12-09T07:13:04.260Z,101080.06
2022-12-09T07:15:35.711Z,101079.56
2022-12-09T07:18:06.899Z,101086.63
2022-12-09T07:20:37.961Z,101091.00
2022-12-09T07:23:08.811Z,101088.84
2022-12-09T07:25:39.663Z,101084.78
2022-12-09T07:28:10.923Z,101085.09
2022-12-09T07:30:42.059Z,101086.03
2022-12-09T07:33:13.187Z,101087.66
2022-12-09T07:35:44.229Z,101089.06
2022-12-09T07:38:15.857Z,101102.16
2022-12-09T07:40:46.822Z,101103.56
2022-12-09T07:43:18.081Z,101112.03
2022-12-09T07:45:50.759Z,101113.41
2022-12-09T07:48:22.348Z,101116.66
2022-12-09T07:50:53.260Z,101123.50
2022-12-09T07:53:24.363Z,101128.41
2022-12-09T07:55:55.429Z,101124.00
2022-12-09T07:58:26.958Z,101136.03
2022-12-09T08:00:57.890Z,101135.75
2022-12-09T08:03:29.003Z,101124.59
2022-12-09T08:06:00.353Z,101134.41
2022-12-09T08:08:32.072Z,101134.66
2022-12-09T08:11:30.171Z,101137.16
2022-12-09T08:14:10.445Z,101143.72
2022-12-09T08:16:43.177Z,101148.94
2022-12-09T08:19:15.041Z,101158.72
2022-12-09T08:21:49.763Z,101150.78
2022-12-09T08:24:25.437Z,101151.94
2022-12-09T08:26:56.495Z,101145.66
2022-12-09T08:29:28.679Z,101138.59
2022-12-09T08:31:59.374Z,101142.44
2022-12-09T08:34:30.853Z,101145.75
2022-12-09T08:37:03.087Z,101149.06
2022-12-09T08:39:34.993Z,101155.09
2022-12-09T08:42:05.593Z,101154.88
2022-12-09T08:44:36.932Z,101160.84
2022-12-09T08:47:08.221Z,101159.00
2022-12-09T08:49:39.537Z,101166.91
2022-12-09T08:52:10.791Z,101171.81
2022-12-09T08:54:41.891Z,101171.28
2022-12-09T08:57:13.002Z,101165.59
2022-12-09T08:59:45.377Z,101174.63
2022-12-09T09:02:17.239Z,101175.72
2022-12-09T09:04:48.552Z,101177.34
2022-12-09T09:07:20.225Z,101170.03
2022-12-09T09:09:51.508Z,101174.94
2022-12-09T09:12:22.757Z,101180.59
2022-12-09T09:14:54.816Z,101190.41
2022-12-09T09:17:26.707Z,101185.78
2022-12-09T09:19:58.477Z,101190.94
2022-12-09T09:22:31.200Z,101193.13
2022-12-09T09:25:02.517Z,101189.03
2022-12-09T09:27:34.113Z,101170.56
2022-12-09T09:30:06.541Z,101192.31
2022-12-09T09:32:38.744Z,101190.94
2022-12-09T09:35:10.187Z,101189.28
2022-12-09T09:37:41.711Z,101189.81
2022-12-09T09:40:15.145Z,101198.81
2022-12-09T09:42:51.041Z,101197.44
2022-12-09T09:45:25.601Z,101193.09
2022-12-09T09:48:00.152Z,101192.00
2022-12-09T09:51:07.228Z,101193.13
2022-12-09T09:53:38.541Z,101193.09
2022-12-09T09:56:30.272Z,101195.81
2022-12-09T09:59:20.458Z,101190.38
2022-12-09T10:02:28.416Z,101188.22
2022-12-09T10:05:18.434Z,101182.75
2022-12-09T10:07:54.625Z,101181.69
2022-12-09T10:10:37.558Z,101184.69
2022-12-09T10:13:18.847Z,101187.41
2022-12-09T10:16:21.836Z,101190.16
2022-12-09T10:19:08.038Z,101185.00
2022-12-09T10:21:43.745Z,101197.22
2022-12-09T10:24:40.333Z,101211.69
2022-12-09T10:27:31.341Z,101224.78
2022-12-09T10:30:07.034Z,101223.69
2022-12-09T10:32:39.314Z,101216.88
2022-12-09T10:35:22.659Z,101225.84
2022-12-09T10:37:56.391Z,101224.72
2022-12-09T10:40:39.542Z,101223.97
2022-12-09T10:43:40.991Z,101210.59
2022-12-09T10:46:21.018Z,101217.13
2022-12-09T10:48:54.908Z,101220.66
2022-12-09T10:51:28.942Z,101219.84
2022-12-09T10:54:02.735Z,101211.41
2022-12-09T10:56:38.837Z,101204.09
2022-12-09T10:59:21.721Z,101204.63
2022-12-09T11:02:01.986Z,101200.25
2022-12-09T11:04:36.582Z,101205.72
2022-12-09T11:07:27.991Z,101203.00
2022-12-09T11:09:59.059Z,101218.28
2022-12-09T11:12:38.198Z,101213.66
2022-12-09T11:15:14.240Z,101211.72
2022-12-09T11:18:05.169Z,101210.59
2022-12-09T11:20:37.671Z,101217.41
2022-12-09T11:23:18.044Z,101217.41
2022-12-09T11:26:07.060Z,101215.50
2022-12-09T11:28:42.096Z,101201.88
2022-12-09T11:31:30.339Z,101208.44
2022-12-09T11:34:05.422Z,101210.31
2022-12-09T11:36:40.608Z,101208.69
2022-12-09T11:39:28.399Z,101202.66
2022-12-09T11:42:18.155Z,101204.34
2022-12-09T11:45:19.048Z,101206.50
2022-12-09T11:48:24.229Z,101201.56
2022-12-09T11:50:43.955Z,101194.19
2022-12-09T11:53:14.798Z,101198.56
2022-12-09T11:56:00.237Z,101192.06
2022-12-09T11:58:44.517Z,101190.97
2022-12-09T12:01:38.777Z,101191.81
2022-12-09T12:04:12.467Z,101189.03
2022-12-09T12:06:49.943Z,101191.53
2022-12-09T12:09:44.519Z,101201.88
2022-12-09T12:12:24.426Z,101205.72
2022-12-09T12:14:56.060Z,101200.00
2022-12-09T12:17:38.935Z,101204.09
2022-12-09T12:20:13.671Z,101205.16
2022-12-09T12:23:00.647Z,101196.94
2022-12-09T12:25:56.103Z,101206.75
2022-12-09T12:29:07.972Z,101202.69
2022-12-09T12:32:13.902Z,101202.69
2022-12-09T12:35:05.775Z,101201.06
2022-12-09T12:37:42.158Z,101193.97
2022-12-09T12:40:23.482Z,101196.97
2022-12-09T12:43:21.153Z,101188.78
2022-12-09T12:46:37.247Z,101194.50
2022-12-09T12:49:26.150Z,101186.88
2022-12-09T12:52:39.445Z,101184.94
2022-12-09T12:55:19.801Z,101187.16
2022-12-09T12:58:16.778Z,101181.16
2022-12-09T13:01:10.577Z,101176.50
2022-12-09T13:04:00.084Z,101179.22
2022-12-09T13:06:46.118Z,101180.06
2022-12-09T13:09:24.515Z,101183.34
2022-12-09T13:12:41.430Z,101183.63
2022-12-09T13:15:16.582Z,101176.81
2022-12-09T13:17:49.599Z,101178.97
2022-12-09T13:20:41.442Z,101184.94
2022-12-09T13:23:11.537Z,101186.31
2022-12-09T13:25:58.256Z,101175.97
2022-12-09T13:28:53.414Z,101173.50
2022-12-09T13:31:31.653Z,101168.91
2022-12-09T13:34:20.952Z,101171.88
2022-12-09T13:36:51.876Z,101170.78
2022-12-09T13:39:43.765Z,101180.31
2022-12-09T13:42:53.417Z,101168.63
2022-12-09T13:45:29.289Z,101167.81
2022-12-09T13:48:22.821Z,101163.19
2022-12-09T13:50:55.644Z,101160.50
2022-12-09T13:53:52.207Z,101152.34
2022-12-09T13:56:27.817Z,101155.59
2022-12-09T13:59:35.434Z,101147.41
2022-12-09T14:02:33.375Z,101147.13
2022-12-09T14:05:11.209Z,101143.03
2022-12-09T14:07:52.262Z,101148.72
2022-12-09T14:10:42.302Z,101138.94
2022-12-09T14:13:34.455Z,101137.81
2022-12-09T14:16:16.794Z,101142.44
2022-12-09T14:18:47.943Z,101144.34
2022-12-09T14:21:21.599Z,101138.09
2022-12-09T14:24:11.028Z,101133.78
2022-12-09T14:26:47.779Z,101130.53
2022-12-09T14:29:44.587Z,101137.06
2022-12-09T14:32:28.706Z,101136.25
2022-12-09T14:35:11.809Z,101132.72
2022-12-09T14:38:04.857Z,101133.81
2022-12-09T14:40:44.815Z,101128.41
2022-12-09T14:43:43.531Z,101128.41
2022-12-09T14:46:35.154Z,101136.59
2022-12-09T14:49:19.065Z,101136.31
2022-12-09T14:51:54.272Z,101126.78
2022-12-09T14:54:30.159Z,101132.50
2022-12-09T14:57:03.807Z,101133.34
2022-12-09T14:59:37.143Z,101134.97
2022-12-09T15:02:11.001Z,101125.44
2022-12-09T15:04:47.493Z,101121.88
2022-12-09T15:07:29.398Z,101114.53
2022-12-09T15:09:59.666Z,101117.25
2022-12-09T15:12:45.787Z,101119.19
2022-12-09T15:15:27.251Z,101118.63
2022-12-09T15:18:15.666Z,101118.09
2022-12-09T15:20:52.415Z,101119.75
2022-12-09T15:23:32.585Z,101112.09
2022-12-09T15:26:08.748Z,101117.84
2022-12-09T15:28:40.402Z,101115.91
2022-12-09T15:31:20.377Z,101114.28
2022-12-09T15:33:54.741Z,101117.53
2022-12-09T15:36:29.769Z,101127.38
2022-12-09T15:39:04.820Z,101122.47
2022-12-09T15:41:57.548Z,101128.50
2022-12-09T15:44:29.804Z,101122.75
2022-12-09T15:47:02.494Z,101125.75
2022-12-09T15:49:39.882Z,101124.41
2022-12-09T15:52:10.748Z,101109.94
2022-12-09T15:54:43.380Z,101120.31
2022-12-09T15:57:15.953Z,101118.38
2022-12-09T15:59:55.838Z,101128.19
2022-12-09T16:02:31.412Z,101123.81
2022-12-09T16:05:05.544Z,101130.13
2022-12-09T16:07:36.352Z,101121.13
2022-12-09T16:10:14.638Z,101124.41
2022-12-09T16:12:46.417Z,101125.75
2022-12-09T16:15:48.087Z,101135.00
2022-12-09T16:18:21.995Z,101137.19
2022-12-09T16:21:03.380Z,101137.72
2022-12-09T16:23:34.940Z,101138.28
2022-12-09T16:26:07.280Z,101144.00
2022-12-09T16:28:38.464Z,101153.81
2022-12-09T16:31:19.914Z,101153.81
2022-12-09T16:33:51.305Z,101157.09
2022-12-09T16:36:26.649Z,101152.19
2022-12-09T16:39:26.383Z,101148.94
2022-12-09T16:42:01.949Z,101160.63
2022-12-09T16:44:38.448Z,101149.75
2022-12-09T16:47:16.332Z,101151.41
2022-12-09T16:49:50.122Z,101146.47
2022-12-09T16:52:26.147Z,101147.00
2022-12-09T16:54:57.069Z,101148.94
2022-12-09T16:57:27.747Z,101155.50
2022-12-09T16:59:58.511Z,101164.72
2022-12-09T17:02:42.217Z,101159.50
2022-12-09T17:05:13.376Z,101159.53
2022-12-09T17:07:44.337Z,101159.78
2022-12-09T17:10:16.650Z,101161.16
2022-12-09T17:12:47.903Z,101158.44
2022-12-09T17:15:21.338Z,101162.22
2022-12-09T17:17:52.598Z,101161.44
2022-12-09T17:20:23.298Z,101165.47
2022-12-09T17:22:54.307Z,101165.47
2022-12-09T17:25:25.289Z,101168.19
2022-12-09T17:27:56.326Z,101169.59
2022-12-09T17:30:27.239Z,101172.03
2022-12-09T17:32:58.310Z,101169.84
2022-12-09T17:35:29.381Z,101172.53
2022-12-09T17:38:00.356Z,101180.47
2022-12-09T17:40:31.302Z,101181.84
2022-12-09T17:43:02.178Z,101181.03
2022-12-09T17:45:37.427Z,101185.09
2022-12-09T17:48:12.963Z,101181.81
2022-12-09T17:50:43.977Z,101174.44
2022-12-09T17:53:14.858Z,101170.59
2022-12-09T17:55:46.072Z,101160.25
2022-12-09T17:58:16.985Z,101167.31
2022-12-09T18:00:49.252Z,101173.03
2022-12-09T18:03:39.434Z,101173.84
2022-12-09T18:06:11.619Z,101175.53
2022-12-09T18:08:42.383Z,101170.31
2022-12-09T18:11:13.459Z,101170.53
2022-12-09T18:13:44.125Z,101179.81
2022-12-09T18:16:16.145Z,101174.94
2022-12-09T18:18:47.290Z,101178.78
2022-12-09T18:21:21.096Z,101186.06
2022-12-09T18:23:52.009Z,101177.97
2022-12-09T18:26:27.176Z,101179.06
2022-12-09T18:29:01.829Z,101185.25
2022-12-09T18:31:33.375Z,101187.16
2022-12-09T18:34:04.320Z,101187.91
2022-12-09T18:36:35.588Z,101191.44
2022-12-09T18:39:06.805Z,101193.91
2022-12-09T18:41:38.317Z,101189.28
2022-12-09T18:44:10.343Z,101198.81
2022-12-09T18:46:47.545Z,101200.63
2022-12-09T18:49:28.454Z,101202.13
2022-12-09T18:51:59.400Z,101201.28
2022-12-09T18:54:33.829Z,101202.53
2022-12-09T18:57:05.301Z,101212.84
2022-12-09T18:59:36.256Z,101201.25
2022-12-09T19:02:07.229Z,101204.06
2022-12-09T19:04:39.295Z,101194.22
2022-12-09T19:07:10.432Z,101198.63
2022-12-09T19:09:43.306Z,101198.38
2022-12-09T19:12:45.849Z,101191.19
2022-12-09T19:15:06.194Z,101205.66
2022-12-09T19:17:37.356Z,101204.63
2022-12-09T19:20:09.384Z,101199.44
2022-12-09T19:22:40.504Z,101199.06
2022-12-09T19:25:11.600Z,101193.00
2022-12-09T19:27:42.823Z,101199.44
2022-12-09T19:30:14.505Z,101203.50
2022-12-09T19:32:53.509Z,101200.44
2022-12-09T19:35:25.071Z,101204.28
2022-12-09T19:38:01.097Z,101198.00
2022-12-09T19:40:32.184Z,101200.59
2022-12-09T19:43:03.087Z,101200.53
2022-12-09T19:45:35.469Z,101210.09
2022-12-09T19:48:07.057Z,101210.22
2022-12-09T19:50:37.950Z,101208.28
2022-12-09T19:53:09.428Z,101198.66
2022-12-09T19:55:40.496Z,101197.84
2022-12-09T19:58:11.455Z,101203.41
2022-12-09T20:00:42.335Z,101208.28
2022-12-09T20:03:13.699Z,101224.13
2022-12-09T20:05:56.059Z,101221.25
2022-12-09T20:08:26.771Z,101217.38
2022-12-09T20:10:57.429Z,101209.06
2022-12-09T20:13:31.837Z,101222.44
2022-12-09T20:16:07.713Z,101228.88
2022-12-09T20:18:39.513Z,101223.50
2022-12-09T20:21:13.151Z,101225.19
2022-12-09T20:23:45.105Z,101220.03
2022-12-09T20:26:23.655Z,101227.75
2022-12-09T20:28:56.836Z,101224.78
2022-12-09T20:31:33.032Z,101237.78
2022-12-09T20:34:10.023Z,101235.13
2022-12-09T20:36:43.369Z,101231.28
2022-12-09T20:39:18.371Z,101233.13
2022-12-09T20:41:50.205Z,101230.06
2022-12-09T20:44:21.618Z,101229.31
2022-12-09T20:46:53.483Z,101231.84
2022-12-09T20:49:27.614Z,101223.88
2022-12-09T20:51:58.761Z,101215.91
2022-12-09T20:54:29.731Z,101208.78
2022-12-09T20:57:00.676Z,101211.38
2022-12-09T20:59:31.667Z,101218.44
2022-12-09T21:02:02.644Z,101223.06
2022-12-09T21:04:33.617Z,101208.56
2022-12-09T21:07:04.644Z,101196.22
2022-12-09T21:09:35.589Z,101197.28
2022-12-09T21:12:06.684Z,101191.38
2022-12-09T21:14:38.545Z,101196.75
2022-12-09T21:17:10.305Z,101194.25
2022-12-09T21:19:40.599Z,101198.97
2022-12-09T21:22:11.673Z,101195.16
2022-12-09T21:24:42.715Z,101198.66
2022-12-09T21:27:14.062Z,101211.09
2022-12-09T21:29:44.987Z,101199.09
2022-12-09T21:32:15.721Z,101193.09
2022-12-09T21:34:46.507Z,101202.66
2022-12-09T21:37:17.445Z,101208.03
2022-12-09T21:39:49.465Z,101204.91
2022-12-09T21:42:20.232Z,101212.22
2022-12-09T21:44:51.156Z,101210.06
2022-12-09T21:47:21.844Z,101205.53
2022-12-09T21:49:53.027Z,101209.34
2022-12-09T21:52:24.256Z,101220.63
2022-12-09T21:54:55.623Z,101216.16
2022-12-09T21:57:25.910Z,101201.25
2022-12-09T21:59:56.942Z,101211.16
2022-12-09T22:02:27.744Z,101204.72
2022-12-09T22:04:58.537Z,101212.91
2022-12-09T22:07:29.475Z,101206.69
2022-12-09T22:10:00.648Z,101205.41
2022-12-09T22:12:31.791Z,101217.53
2022-12-09T22:17:34.742Z,101223.03
2022-12-09T22:20:48.985Z,101218.47
2022-12-09T22:22:59.564Z,101217.53
2022-12-09T22:25:30.691Z,101206.22
2022-12-09T22:28:01.517Z,101211.91
2022-12-09T22:30:32.553Z,101213.47
2022-12-09T22:33:03.800Z,101217.38
2022-12-09T22:35:35.435Z,101218.47
2022-12-09T22:38:12.788Z,101226.84
2022-12-09T22:40:45.623Z,101238.38
2022-12-09T22:43:16.521Z,101205.81
2022-12-09T22:45:47.457Z,101220.84
2022-12-09T22:48:18.461Z,101219.31
2022-12-09T22:50:50.229Z,101212.53
2022-12-09T22:53:21.196Z,101198.44
2022-12-09T22:55:52.001Z,101199.97
2022-12-09T22:58:22.698Z,101201.59
2022-12-09T23:00:53.657Z,101186.84
2022-12-09T23:03:24.596Z,101200.81
2022-12-09T23:05:55.929Z,101196.09
2022-12-09T23:08:26.805Z,101196.09
2022-12-09T23:11:01.688Z,101199.72
2022-12-09T23:13:36.214Z,101204.31
2022-12-09T23:16:15.028Z,101204.66
2022-12-09T23:18:46.199Z,101197.94
2022-12-09T23:21:32.121Z,101185.66
2022-12-09T23:24:05.618Z,101193.50
2022-12-09T23:26:38.940Z,101190.34
2022-12-09T23:29:14.737Z,101183.47
2022-12-09T23:31:45.888Z,101170.63
2022-12-09T23:34:16.749Z,101173.41
2022-12-09T23:36:47.799Z,101166.75
2022-12-09T23:39:20.232Z,101157.66
2022-12-09T23:41:51.200Z,101159.50
2022-12-09T23:44:22.154Z,101160.75
2022-12-09T23:46:53.051Z,101151.75
2022-12-09T23:49:24.058Z,101144.34
2022-12-09T23:51:55.535Z,101154.13
2022-12-09T23:54:26.415Z,101153.50
2022-12-09T23:56:57.301Z,101150.06
2022-12-09T23:59:28.192Z,101145.34
